createdAt,value
2019-06-26T00:01:02.343Z,96082.18
2019-06-26T00:03:31.863Z,96077.85
2019-06-26T00:06:01.147Z,96074.05
2019-06-26T00:08:30.373Z,96079.16
2019-06-26T00:10:59.761Z,96081.31
2019-06-26T00:13:28.959Z,96076.50
2019-06-26T00:15:58.511Z,96078.66
2019-06-26T00:18:27.711Z,96074.77
2019-06-26T00:20:56.952Z,96078.95
2019-06-26T00:23:26.159Z,96079.44
2019-06-26T00:25:55.415Z,96081.38
2019-06-26T00:28:24.609Z,96084.21
2019-06-26T00:30:53.856Z,96079.29
2019-06-26T00:33:23.050Z,96080.66
2019-06-26T00:35:52.444Z,96081.29
2019-06-26T00:38:21.626Z,96082.98
2019-06-26T00:40:50.890Z,96078.66
2019-06-26T00:43:20.133Z,96080.89
2019-06-26T00:45:49.328Z,96089.45
2019-06-26T00:48:18.574Z,96084.02
2019-06-26T00:50:47.774Z,96086.61
2019-06-26T00:53:17.034Z,96084.66
2019-06-26T00:55:46.215Z,96085.58
2019-06-26T00:58:15.467Z,96089.28
2019-06-26T01:00:48.370Z,96085.20
2019-06-26T01:03:17.677Z,96082.13
2019-06-26T01:05:46.864Z,96086.61
2019-06-26T01:08:16.113Z,96083.34
2019-06-26T01:10:45.419Z,96086.29
2019-06-26T01:13:14.680Z,96082.39
2019-06-26T01:15:43.965Z,96078.40
2019-06-26T01:18:13.498Z,96080.41
2019-06-26T01:20:42.748Z,96077.33
2019-06-26T01:23:12.013Z,96079.03
2019-06-26T01:25:41.257Z,96079.36
2019-06-26T01:28:10.834Z,96080.07
2019-06-26T01:30:40.060Z,96082.06
2019-06-26T01:33:09.354Z,96078.84
2019-06-26T01:35:38.518Z,96079.75
2019-06-26T01:38:08.163Z,96073.98
2019-06-26T01:40:37.358Z,96075.05
2019-06-26T01:43:06.609Z,96076.14
2019-06-26T01:45:35.860Z,96078.09
2019-06-26T01:48:05.459Z,96079.04
2019-06-26T01:50:34.685Z,96081.66
2019-06-26T01:53:03.895Z,96083.44
2019-06-26T01:55:33.155Z,96080.36
2019-06-26T01:58:02.757Z,96084.42
2019-06-26T02:00:32.139Z,96076.37
2019-06-26T02:03:01.298Z,96087.83
2019-06-26T02:05:30.539Z,96086.07
2019-06-26T02:07:59.735Z,96081.70
2019-06-26T02:10:28.983Z,96081.35
2019-06-26T02:12:58.553Z,96087.03
2019-06-26T02:15:27.797Z,96085.95
2019-06-26T02:17:56.998Z,96089.57
2019-06-26T02:20:26.201Z,96089.77
2019-06-26T02:22:55.446Z,96093.16
2019-06-26T02:25:24.692Z,96097.67
2019-06-26T02:27:54.082Z,96096.95
2019-06-26T02:30:23.735Z,96102.12
2019-06-26T02:32:53.012Z,96107.45
2019-06-26T02:35:22.187Z,96107.09
2019-06-26T02:37:51.459Z,96104.24
2019-06-26T02:40:21.037Z,96103.58
2019-06-26T02:42:50.290Z,96105.27
2019-06-26T02:45:19.533Z,96105.64
2019-06-26T02:47:49.004Z,96110.88
2019-06-26T02:50:18.266Z,96105.90
2019-06-26T02:52:47.449Z,96104.44
2019-06-26T02:55:16.695Z,96105.34
2019-06-26T02:57:45.888Z,96105.56
2019-06-26T03:00:15.256Z,96103.97
2019-06-26T03:02:44.444Z,96101.98
2019-06-26T03:05:14.022Z,96105.83
2019-06-26T03:07:43.277Z,96102.78
2019-06-26T03:10:13.106Z,96103.41
2019-06-26T03:12:42.366Z,96105.96
2019-06-26T03:15:11.669Z,96103.61
2019-06-26T03:17:54.274Z,96104.53
2019-06-26T03:20:11.948Z,96100.38
2019-06-26T03:22:41.212Z,96102.91
2019-06-26T03:25:10.789Z,96105.06
2019-06-26T03:27:40.041Z,96099.75
2019-06-26T03:30:10.140Z,96100.04
2019-06-26T03:32:39.389Z,96099.21
2019-06-26T03:35:09.334Z,96105.20
2019-06-26T03:37:38.631Z,96107.17
2019-06-26T03:40:09.232Z,96103.19
2019-06-26T03:42:38.477Z,96108.14
2019-06-26T03:45:24.102Z,96110.09
2019-06-26T03:47:39.499Z,96107.30
2019-06-26T03:50:09.552Z,96110.84
2019-06-26T03:52:38.753Z,96113.03
2019-06-26T03:55:08.193Z,96109.69
2019-06-26T03:57:37.739Z,96114.69
2019-06-26T04:00:08.969Z,96122.88
2019-06-26T04:02:38.158Z,96125.42
2019-06-26T04:05:07.610Z,96120.36
2019-06-26T04:07:36.837Z,96125.03
2019-06-26T04:10:06.941Z,96118.73
2019-06-26T04:12:36.121Z,96124.34
2019-06-26T04:15:05.854Z,96124.67
2019-06-26T04:17:35.092Z,96127.48
2019-06-26T04:20:05.207Z,96131.11
2019-06-26T04:22:34.472Z,96127.89
2019-06-26T04:25:03.693Z,96129.55
2019-06-26T04:27:32.958Z,96124.88
2019-06-26T04:30:02.191Z,96128.86
2019-06-26T04:32:31.381Z,96124.41
2019-06-26T04:35:00.750Z,96133.62
2019-06-26T04:37:29.935Z,96133.40
2019-06-26T04:39:59.177Z,96130.75
2019-06-26T04:42:28.348Z,96139.53
2019-06-26T04:44:57.636Z,96140.01
2019-06-26T04:47:26.829Z,96139.42
2019-06-26T04:49:56.031Z,96138.55
2019-06-26T04:52:25.295Z,96146.11
2019-06-26T04:54:54.481Z,96140.11
2019-06-26T04:57:23.723Z,96143.23
2019-06-26T04:59:52.923Z,96139.53
2019-06-26T05:02:22.160Z,96135.44
2019-06-26T05:04:51.361Z,96143.34
2019-06-26T05:07:20.918Z,96143.67
2019-06-26T05:09:50.119Z,96147.39
2019-06-26T05:12:19.828Z,96152.38
2019-06-26T05:14:49.015Z,96154.47
2019-06-26T05:17:18.260Z,96159.97
2019-06-26T05:19:47.449Z,96152.70
2019-06-26T05:22:16.677Z,96148.72
2019-06-26T05:24:46.619Z,96149.75
2019-06-26T05:27:16.196Z,96154.66
2019-06-26T05:29:45.403Z,96153.14
2019-06-26T05:32:14.667Z,96148.23
2019-06-26T05:34:43.860Z,96149.11
2019-06-26T05:37:13.319Z,96153.16
2019-06-26T05:39:42.567Z,96157.01
2019-06-26T05:42:11.767Z,96159.93
2019-06-26T05:44:41.083Z,96163.48
2019-06-26T05:47:10.283Z,96162.52
2019-06-26T05:49:40.248Z,96162.48
2019-06-26T05:52:09.954Z,96166.89
2019-06-26T05:54:39.224Z,96168.28
2019-06-26T05:57:08.438Z,96167.52
2019-06-26T05:59:37.705Z,96171.58
2019-06-26T06:02:07.736Z,96171.97
2019-06-26T06:04:37.299Z,96178.80
2019-06-26T06:07:06.498Z,96172.33
2019-06-26T06:09:35.793Z,96174.41
2019-06-26T06:12:05.099Z,96177.74
2019-06-26T06:14:34.334Z,96178.84
2019-06-26T06:17:03.860Z,96181.86
2019-06-26T06:19:33.138Z,96187.55
2019-06-26T06:22:02.383Z,96195.86
2019-06-26T06:24:31.972Z,96191.59
2019-06-26T06:27:01.499Z,96192.58
2019-06-26T06:29:30.950Z,96192.53
2019-06-26T06:32:00.302Z,96198.38
2019-06-26T06:34:29.503Z,96195.64
2019-06-26T06:36:58.749Z,96199.75
2019-06-26T06:39:27.942Z,96203.77
2019-06-26T06:41:57.473Z,96203.16
2019-06-26T06:44:26.674Z,96201.19
2019-06-26T06:47:03.946Z,96204.23
2019-06-26T06:49:27.172Z,96206.11
2019-06-26T06:51:56.434Z,96208.33
2019-06-26T06:54:25.681Z,96204.56
2019-06-26T06:56:55.223Z,96211.63
2019-06-26T06:59:25.329Z,96209.20
2019-06-26T07:01:54.867Z,96209.55
2019-06-26T07:04:24.453Z,96206.47
2019-06-26T07:06:53.962Z,96209.86
2019-06-26T07:09:23.225Z,96210.27
2019-06-26T07:11:52.443Z,96214.83
2019-06-26T07:14:21.654Z,96215.23
2019-06-26T07:16:50.907Z,96220.94
2019-06-26T07:19:20.465Z,96217.18
2019-06-26T07:21:49.704Z,96209.37
2019-06-26T07:24:18.966Z,96217.69
2019-06-26T07:26:48.562Z,96219.42
2019-06-26T07:29:17.771Z,96221.59
2019-06-26T07:34:21.691Z,96218.52
2019-06-26T07:36:50.958Z,96222.81
2019-06-26T07:39:20.176Z,96219.67
2019-06-26T07:41:49.434Z,96225.61
2019-06-26T07:44:18.697Z,96224.49
2019-06-26T07:46:48.034Z,96225.61
2019-06-26T07:49:17.223Z,96222.52
2019-06-26T07:54:20.915Z,96224.10
2019-06-26T07:56:50.183Z,96226.25
2019-06-26T07:59:19.419Z,96231.08
2019-06-26T08:01:48.704Z,96222.97
2019-06-26T08:04:18.033Z,96224.02
2019-06-26T08:06:47.394Z,96226.79
2019-06-26T08:09:17.078Z,96224.41
2019-06-26T08:11:46.454Z,96222.47
2019-06-26T08:14:15.668Z,96226.46
2019-06-26T08:16:44.910Z,96224.98
2019-06-26T08:19:14.385Z,96228.59
2019-06-26T08:21:46.621Z,96224.01
2019-06-26T08:24:14.585Z,96231.48
2019-06-26T08:26:43.855Z,96233.39
2019-06-26T08:29:13.538Z,96231.64
2019-06-26T08:31:42.741Z,96231.74
2019-06-26T08:34:12.001Z,96235.63
2019-06-26T08:36:41.199Z,96234.16
2019-06-26T08:39:10.448Z,96234.80
2019-06-26T08:41:39.986Z,96232.55
2019-06-26T08:44:09.583Z,96228.23
2019-06-26T08:46:38.812Z,96229.97
2019-06-26T08:49:24.451Z,96230.69
2019-06-26T08:51:38.989Z,96234.12
2019-06-26T08:54:08.841Z,96229.16
2019-06-26T08:56:38.062Z,96230.69
2019-06-26T08:59:07.641Z,96237.59
2019-06-26T09:01:37.130Z,96236.72
2019-06-26T09:04:06.388Z,96231.95
2019-06-26T09:06:35.581Z,96231.30
2019-06-26T09:09:07.603Z,96234.12
2019-06-26T09:11:36.849Z,96232.59
2019-06-26T09:14:06.286Z,96235.21
2019-06-26T09:16:35.480Z,96238.34
2019-06-26T09:19:04.838Z,96235.95
2019-06-26T09:21:34.030Z,96230.82
2019-06-26T09:24:03.597Z,96227.22
2019-06-26T09:26:32.853Z,96233.87
2019-06-26T09:29:02.045Z,96230.08
2019-06-26T09:31:31.283Z,96236.34
2019-06-26T09:34:00.845Z,96231.27
2019-06-26T09:36:30.085Z,96238.36
2019-06-26T09:38:59.285Z,96239.70
2019-06-26T09:41:28.535Z,96237.94
2019-06-26T09:43:57.744Z,96239.78
2019-06-26T09:46:27.034Z,96241.00
2019-06-26T09:48:56.236Z,96239.97
2019-06-26T09:51:25.481Z,96246.66
2019-06-26T09:53:54.692Z,96243.48
2019-06-26T09:56:23.944Z,96247.27
2019-06-26T09:58:53.142Z,96243.92
2019-06-26T10:01:22.671Z,96248.02
2019-06-26T10:03:51.864Z,96247.55
2019-06-26T10:06:21.097Z,96245.94
2019-06-26T10:08:53.956Z,96250.86
2019-06-26T10:11:21.299Z,96251.73
2019-06-26T10:13:50.465Z,96241.77
2019-06-26T10:16:19.673Z,96239.02
2019-06-26T10:18:48.901Z,96243.87
2019-06-26T10:21:18.225Z,96238.03
2019-06-26T10:23:47.469Z,96237.91
2019-06-26T10:26:16.663Z,96235.63
2019-06-26T10:28:45.934Z,96236.69
2019-06-26T10:31:18.397Z,96236.78
2019-06-26T10:33:46.111Z,96237.31
2019-06-26T10:36:15.295Z,96237.55
2019-06-26T10:38:44.564Z,96234.86
2019-06-26T10:41:14.089Z,96238.06
2019-06-26T10:43:43.472Z,96239.72
2019-06-26T10:46:13.105Z,96242.98
2019-06-26T10:48:42.370Z,96238.28
2019-06-26T10:51:11.603Z,96234.42
2019-06-26T10:53:40.890Z,96234.94
2019-06-26T10:56:10.081Z,96240.07
2019-06-26T10:58:39.396Z,96234.34
2019-06-26T11:01:08.590Z,96230.51
2019-06-26T11:03:38.636Z,96232.75
2019-06-26T11:06:07.841Z,96234.44
2019-06-26T11:08:37.079Z,96234.52
2019-06-26T11:11:06.623Z,96229.46
2019-06-26T11:13:35.898Z,96221.10
2019-06-26T11:16:05.159Z,96229.39
2019-06-26T11:18:34.533Z,96227.50
2019-06-26T11:21:03.852Z,96229.97
2019-06-26T11:23:33.040Z,96226.23
2019-06-26T11:26:02.292Z,96223.27
2019-06-26T11:28:31.559Z,96224.89
2019-06-26T11:31:00.761Z,96223.10
2019-06-26T11:33:29.957Z,96219.08
2019-06-26T11:35:59.200Z,96225.48
2019-06-26T11:38:28.483Z,96222.70
2019-06-26T11:41:01.600Z,96225.86
2019-06-26T11:43:28.766Z,96223.30
2019-06-26T11:45:58.101Z,96219.55
2019-06-26T11:48:27.297Z,96225.59
2019-06-26T11:50:56.547Z,96219.65
2019-06-26T11:53:25.784Z,96215.90
2019-06-26T11:55:54.979Z,96211.80
2019-06-26T11:58:24.149Z,96216.66
2019-06-26T12:00:53.837Z,96215.14
2019-06-26T12:03:23.047Z,96215.80
2019-06-26T12:05:52.583Z,96215.66
2019-06-26T12:08:22.299Z,96214.52
2019-06-26T12:10:51.495Z,96207.75
2019-06-26T12:13:20.969Z,96204.48
2019-06-26T12:15:50.157Z,96207.16
2019-06-26T12:18:19.431Z,96206.37
2019-06-26T12:20:48.632Z,96202.34
2019-06-26T12:23:17.901Z,96208.81
2019-06-26T12:25:47.099Z,96201.59
2019-06-26T12:28:16.365Z,96197.08
2019-06-26T12:30:45.825Z,96193.95
2019-06-26T12:33:15.531Z,96204.82
2019-06-26T12:35:44.732Z,96197.87
2019-06-26T12:38:13.985Z,96202.17
2019-06-26T12:40:43.180Z,96193.33
2019-06-26T12:43:12.361Z,96191.74
2019-06-26T12:45:41.607Z,96188.36
2019-06-26T12:48:10.880Z,96182.64
2019-06-26T12:50:40.113Z,96182.50
2019-06-26T12:53:09.311Z,96183.11
2019-06-26T12:55:38.890Z,96182.05
2019-06-26T12:58:13.915Z,96181.86
2019-06-26T13:00:39.057Z,96181.99
2019-06-26T13:03:08.241Z,96181.05
2019-06-26T13:05:37.492Z,96178.43
2019-06-26T13:08:06.685Z,96177.79
2019-06-26T13:10:48.978Z,96177.94
2019-06-26T13:13:06.842Z,96180.23
2019-06-26T13:15:36.089Z,96175.95
2019-06-26T13:18:05.294Z,96176.32
2019-06-26T13:20:48.246Z,96169.88
2019-06-26T13:23:05.441Z,96173.75
2019-06-26T13:25:34.648Z,96171.55
2019-06-26T13:28:03.897Z,96170.19
2019-06-26T13:30:37.753Z,96168.16
2019-06-26T13:33:07.004Z,96166.25
2019-06-26T13:35:36.207Z,96168.80
2019-06-26T13:38:05.769Z,96171.28
2019-06-26T13:40:34.975Z,96169.42
2019-06-26T13:43:04.221Z,96168.91
2019-06-26T13:45:33.855Z,96164.70
2019-06-26T13:48:03.123Z,96168.24
2019-06-26T13:50:32.308Z,96167.31
2019-06-26T13:53:01.563Z,96166.32
2019-06-26T13:55:30.741Z,96162.98
2019-06-26T13:57:59.981Z,96167.86
2019-06-26T14:00:29.180Z,96169.33
2019-06-26T14:02:58.427Z,96171.66
2019-06-26T14:05:29.560Z,96170.56
2019-06-26T14:07:58.579Z,96165.67
2019-06-26T14:10:27.814Z,96170.97
2019-06-26T14:12:57.083Z,96164.33
2019-06-26T14:15:26.375Z,96164.99
2019-06-26T14:17:55.580Z,96161.14
2019-06-26T14:20:25.102Z,96164.09
2019-06-26T14:22:54.288Z,96162.31
2019-06-26T14:25:23.767Z,96164.58
2019-06-26T14:27:52.970Z,96154.33
2019-06-26T14:30:22.295Z,96154.66
2019-06-26T14:32:51.488Z,96151.59
2019-06-26T14:35:21.036Z,96156.46
2019-06-26T14:37:50.224Z,96158.28
2019-06-26T14:40:19.582Z,96158.22
2019-06-26T14:42:48.795Z,96154.89
2019-06-26T14:45:18.323Z,96156.86
2019-06-26T14:47:47.564Z,96155.57
2019-06-26T14:50:16.973Z,96156.16
2019-06-26T14:52:46.253Z,96151.02
2019-06-26T14:55:15.798Z,96143.59
2019-06-26T14:57:45.044Z,96135.89
2019-06-26T15:00:15.941Z,96141.63
2019-06-26T15:02:45.245Z,96141.73
2019-06-26T15:05:14.872Z,96137.56
2019-06-26T15:07:44.410Z,96136.29
2019-06-26T15:10:14.080Z,96138.25
2019-06-26T15:12:43.664Z,96128.59
2019-06-26T15:15:13.386Z,96130.02
2019-06-26T15:17:43.065Z,96122.76
2019-06-26T15:20:12.775Z,96127.97
2019-06-26T15:22:42.342Z,96125.58
2019-06-26T15:25:11.741Z,96122.93
2019-06-26T15:27:40.991Z,96124.03
2019-06-26T15:30:10.801Z,96119.19
2019-06-26T15:32:40.078Z,96114.84
2019-06-26T15:35:09.796Z,96111.37
2019-06-26T15:37:38.985Z,96108.97
2019-06-26T15:40:08.973Z,96106.00
2019-06-26T15:42:38.162Z,96103.87
2019-06-26T15:45:07.896Z,96106.02
2019-06-26T15:47:37.145Z,96083.56
2019-06-26T15:50:10.494Z,96083.56
2019-06-26T15:52:38.097Z,96095.73
2019-06-26T15:55:07.959Z,96085.40
2019-06-26T15:57:37.131Z,96098.66
2019-06-26T16:00:07.082Z,96094.59
2019-06-26T16:02:36.428Z,96091.58
2019-06-26T16:05:06.277Z,96099.41
2019-06-26T16:07:35.463Z,96093.39
2019-06-26T16:10:05.120Z,96093.67
2019-06-26T16:12:34.319Z,96091.21
2019-06-26T16:15:03.578Z,96091.45
2019-06-26T16:17:50.431Z,96091.69
2019-06-26T16:20:19.681Z,96090.53
2019-06-26T16:22:48.860Z,96087.78
2019-06-26T16:25:18.204Z,96094.52
2019-06-26T16:28:03.954Z,96098.59
2019-06-26T16:30:18.846Z,96098.30
2019-06-26T16:32:48.035Z,96093.89
2019-06-26T16:35:17.665Z,96088.80
2019-06-26T16:37:46.869Z,96092.85
2019-06-26T16:40:16.064Z,96086.87
2019-06-26T16:42:45.301Z,96097.41
2019-06-26T16:45:14.994Z,96093.34
2019-06-26T16:47:44.288Z,96088.44
2019-06-26T16:50:14.174Z,96082.66
2019-06-26T16:52:48.997Z,96087.80
2019-06-26T16:55:14.569Z,96089.44
2019-06-26T16:57:43.918Z,96083.42
2019-06-26T17:00:13.121Z,96084.01
2019-06-26T17:02:42.302Z,96082.66
2019-06-26T17:05:12.996Z,96085.09
2019-06-26T17:07:42.198Z,96080.26
2019-06-26T17:10:11.635Z,96082.17
2019-06-26T17:12:40.828Z,96086.26
2019-06-26T17:15:11.724Z,96080.85
2019-06-26T17:17:40.949Z,96083.32
2019-06-26T17:20:10.905Z,96088.00
2019-06-26T17:22:40.477Z,96092.09
2019-06-26T17:25:09.825Z,96083.22
2019-06-26T17:27:39.001Z,96090.64
2019-06-26T17:30:09.012Z,96085.26
2019-06-26T17:32:38.608Z,96088.85
2019-06-26T17:35:08.983Z,96092.98
2019-06-26T17:37:38.498Z,96081.37
2019-06-26T17:40:08.154Z,96086.78
2019-06-26T17:42:37.416Z,96086.23
2019-06-26T17:45:06.911Z,96078.06
2019-06-26T17:47:36.152Z,96075.35
2019-06-26T17:50:06.252Z,96075.80
2019-06-26T17:52:38.250Z,96076.53
2019-06-26T17:55:07.220Z,96076.98
2019-06-26T17:57:36.415Z,96075.55
2019-06-26T18:00:07.295Z,96074.89
2019-06-26T18:02:36.570Z,96076.94
2019-06-26T18:05:07.046Z,96074.41
2019-06-26T18:07:36.231Z,96077.55
2019-06-26T18:10:06.158Z,96079.64
2019-06-26T18:12:35.345Z,96086.27
2019-06-26T18:15:05.077Z,96085.09
2019-06-26T18:17:34.279Z,96084.45
2019-06-26T18:20:03.488Z,96084.37
2019-06-26T18:22:32.720Z,96082.41
2019-06-26T18:25:01.969Z,96079.33
2019-06-26T18:27:31.643Z,96079.20
2019-06-26T18:30:01.806Z,96078.58
2019-06-26T18:32:31.416Z,96079.83
2019-06-26T18:35:00.600Z,96081.88
2019-06-26T18:37:30.260Z,96078.28
2019-06-26T18:39:59.440Z,96085.17
2019-06-26T18:42:28.956Z,96086.67
2019-06-26T18:44:58.135Z,96083.34
2019-06-26T18:47:27.416Z,96090.04
2019-06-26T18:49:56.633Z,96087.48
2019-06-26T18:52:25.865Z,96085.23
2019-06-26T18:54:55.053Z,96085.16
2019-06-26T18:57:24.291Z,96091.73
2019-06-26T18:59:53.833Z,96093.55
2019-06-26T19:02:23.127Z,96091.30
2019-06-26T19:04:54.228Z,96091.51
2019-06-26T19:07:23.240Z,96085.20
2019-06-26T19:09:52.644Z,96089.98
2019-06-26T19:12:22.175Z,96089.84
2019-06-26T19:14:51.409Z,96099.17
2019-06-26T19:17:21.006Z,96093.40
2019-06-26T19:19:50.253Z,96098.99
2019-06-26T19:22:19.456Z,96094.81
2019-06-26T19:24:48.788Z,96102.83
2019-06-26T19:27:18.028Z,96098.44
2019-06-26T19:29:47.236Z,96099.12
2019-06-26T19:32:16.423Z,96113.84
2019-06-26T19:34:45.660Z,96112.70
2019-06-26T19:37:15.173Z,96114.98
2019-06-26T19:39:44.414Z,96113.84
2019-06-26T19:42:13.728Z,96114.20
2019-06-26T19:44:43.300Z,96114.63
2019-06-26T19:47:12.511Z,96119.88
2019-06-26T19:49:41.790Z,96124.32
2019-06-26T19:52:11.409Z,96119.03
2019-06-26T19:54:40.729Z,96119.98
2019-06-26T19:57:09.996Z,96123.33
2019-06-26T19:59:39.228Z,96114.33
2019-06-26T20:02:08.476Z,96121.51
2019-06-26T20:04:37.668Z,96114.98
2019-06-26T20:07:06.945Z,96119.97
2019-06-26T20:09:36.197Z,96112.09
2019-06-26T20:12:05.507Z,96115.19
2019-06-26T20:14:35.393Z,96113.51
2019-06-26T20:17:04.665Z,96108.84
2019-06-26T20:19:33.984Z,96113.33
2019-06-26T20:22:03.189Z,96106.49
2019-06-26T20:24:43.453Z,96110.19
2019-06-26T20:27:03.733Z,96105.77
2019-06-26T20:29:32.966Z,96102.92
2019-06-26T20:32:02.444Z,96103.04
2019-06-26T20:34:31.735Z,96105.42
2019-06-26T20:37:00.939Z,96100.30
2019-06-26T20:39:30.184Z,96109.35
2019-06-26T20:41:59.370Z,96108.47
2019-06-26T20:44:28.617Z,96105.07
2019-06-26T20:46:57.858Z,96103.09
2019-06-26T20:49:27.126Z,96103.20
2019-06-26T20:51:56.316Z,96104.47
2019-06-26T20:54:25.557Z,96111.66
2019-06-26T20:56:55.042Z,96107.88
2019-06-26T20:59:24.367Z,96105.06
2019-06-26T21:01:53.624Z,96110.36
2019-06-26T21:04:22.921Z,96105.75
2019-06-26T21:06:52.750Z,96107.92
2019-06-26T21:09:21.955Z,96112.88
2019-06-26T21:11:51.231Z,96104.22
2019-06-26T21:14:20.424Z,96108.20
2019-06-26T21:16:49.690Z,96111.02
2019-06-26T21:19:18.877Z,96109.03
2019-06-26T21:21:48.134Z,96110.47
2019-06-26T21:24:17.339Z,96116.47
2019-06-26T21:26:46.640Z,96108.56
2019-06-26T21:29:15.837Z,96108.52
2019-06-26T21:31:45.037Z,96114.19
2019-06-26T21:34:14.283Z,96122.87
2019-06-26T21:36:43.496Z,96119.45
2019-06-26T21:39:12.729Z,96110.98
2019-06-26T21:41:42.010Z,96119.03
2019-06-26T21:44:11.205Z,96118.67
2019-06-26T21:46:40.515Z,96126.48
2019-06-26T21:49:09.702Z,96127.78
2019-06-26T21:51:38.960Z,96122.78
2019-06-26T21:54:08.146Z,96124.51
2019-06-26T21:56:37.385Z,96130.30
2019-06-26T21:59:06.576Z,96132.67
2019-06-26T22:01:35.819Z,96133.10
2019-06-26T22:04:05.299Z,96132.12
2019-06-26T22:06:34.540Z,96125.30
2019-06-26T22:09:05.330Z,96123.28
2019-06-26T22:11:34.669Z,96116.94
2019-06-26T22:14:03.936Z,96123.70
2019-06-26T22:16:33.273Z,96115.14
2019-06-26T22:19:02.465Z,96116.91
2019-06-26T22:21:31.721Z,96114.98
2019-06-26T22:24:00.922Z,96117.45
2019-06-26T22:26:30.493Z,96121.84
2019-06-26T22:29:00.043Z,96116.12
2019-06-26T22:31:29.235Z,96118.55
2019-06-26T22:33:58.577Z,96119.63
2019-06-26T22:36:27.773Z,96116.24
2019-06-26T22:38:57.024Z,96121.00
2019-06-26T22:41:26.221Z,96120.48
2019-06-26T22:43:55.472Z,96118.12
2019-06-26T22:46:24.670Z,96114.91
2019-06-26T22:48:53.986Z,96115.87
2019-06-26T22:51:23.175Z,96115.73
2019-06-26T22:53:52.434Z,96111.75
2019-06-26T22:56:21.938Z,96121.85
2019-06-26T22:58:51.208Z,96114.94
2019-06-26T23:01:20.740Z,96115.19
2019-06-26T23:03:49.986Z,96114.91
2019-06-26T23:06:19.300Z,96117.58
2019-06-26T23:08:48.578Z,96117.48
2019-06-26T23:11:17.839Z,96111.55
2019-06-26T23:13:47.173Z,96112.23
2019-06-26T23:16:16.428Z,96112.28
2019-06-26T23:18:45.630Z,96112.15
2019-06-26T23:21:14.879Z,96114.23
2019-06-26T23:23:44.143Z,96116.39
2019-06-26T23:26:23.377Z,96115.04
2019-06-26T23:28:44.411Z,96114.89
2019-06-26T23:31:13.982Z,96116.34
2019-06-26T23:33:43.558Z,96108.56
2019-06-26T23:36:13.035Z,96113.52
2019-06-26T23:38:42.299Z,96115.58
2019-06-26T23:41:11.503Z,96104.52
2019-06-26T23:43:41.048Z,96105.66
2019-06-26T23:46:10.625Z,96106.29
2019-06-26T23:48:39.878Z,96108.23
2019-06-26T23:51:09.165Z,96105.15
2019-06-26T23:53:38.702Z,96102.16
2019-06-26T23:56:08.007Z,96101.05
2019-06-26T23:58:37.340Z,96090.59
